Last 24 Hours

UH Manoa Atmospheric Sciences

15 Minute Data | Pacific/Honolulu
as of 11/27/22 6:02 PM HST
Station Date Time Temp (°F) RH (%) Dew Pt (°F) Wind Spd (mph) Wind Dir (°) Wind Gust (mph) Latest Rain (In) Solar Rad (W/m2) Heat Index (°F) Barometric Press (inHg) Daily Rain (In) Daily Min Temp (°F) Daily Max Temp (°F) Daily Max Wind (mph)
UH Manoa Atmospheric Sciences 11/27/22 1800 77.0 68 65.8 3.1 NE | 48 5.8 0.00 0 77.0 30.00 0.00 71.2 83.1 13.0
UH Manoa Atmospheric Sciences 11/27/22 1745 77.3 69 66.3 3.8 NE | 44 7.0 0.00 8 77.3 29.99 0.00 71.2 83.1 13.0
UH Manoa Atmospheric Sciences 11/27/22 1730 77.9 69 66.8 3.6 NE | 45 7.4 0.00 26 77.9 29.99 0.00 71.2 83.1 13.0
UH Manoa Atmospheric Sciences 11/27/22 1715 78.4 67 66.5 3.6 NE | 47 8.1 0.00 44 78.4 29.98 0.00 71.2 83.1 13.0
UH Manoa Atmospheric Sciences 11/27/22 1700 78.4 68 67.1 2.2 E | 93 6.6 0.00 76 78.4 29.98 0.00 71.2 83.1 13.0
UH Manoa Atmospheric Sciences 11/27/22 1645 78.4 69 67.4 4.2 ESE | 114 10.0 0.00 101 78.4 29.98 0.00 71.2 83.1 13.0
UH Manoa Atmospheric Sciences 11/27/22 1630 79.4 68 68.1 2.9 E | 93 9.5 0.00 195 79.4 29.98 0.00 71.2 83.1 13.0
UH Manoa Atmospheric Sciences 11/27/22 1615 79.3 69 68.1 3.5 E | 88 10.8 0.00 222 79.3 29.97 0.00 71.2 83.1 13.0
UH Manoa Atmospheric Sciences 11/27/22 1600 79.3 69 68.2 2.9 E | 101 8.0 0.00 186 79.3 29.97 0.00 71.2 83.1 13.0
UH Manoa Atmospheric Sciences 11/27/22 1545 79.5 68 68.2 3.4 ESE | 106 8.9 0.00 324 79.5 29.97 0.00 71.2 83.1 13.0
UH Manoa Atmospheric Sciences 11/27/22 1530 78.7 70 68.2 4.7 E | 100 13.0 0.00 321 78.7 29.97 0.00 71.2 83.1 13.0
UH Manoa Atmospheric Sciences 11/27/22 1515 79.5 68 67.8 4.4 ESE | 106 11.6 0.00 291 80.0 29.97 0.00 71.2 83.1 12.2
UH Manoa Atmospheric Sciences 11/27/22 1500 81.0 61 66.3 2.8 ESE | 104 7.6 0.00 416 83.2 29.97 0.00 71.2 83.1 12.2
UH Manoa Atmospheric Sciences 11/27/22 1445 80.7 59 65.3 3.5 ESE | 123 9.1 0.00 514 82.7 29.97 0.00 71.2 83.1 12.2
UH Manoa Atmospheric Sciences 11/27/22 1430 80.9 60 65.7 2.7 ESE | 115 8.2 0.00 510 82.9 29.97 0.00 71.2 83.1 12.2
UH Manoa Atmospheric Sciences 11/27/22 1415 81.4 60 66.2 2.7 ESE | 110 8.4 0.00 364 83.6 29.97 0.00 71.2 83.1 12.2
UH Manoa Atmospheric Sciences 11/27/22 1400 82.0 60 66.6 2.1 SE | 138 8.0 0.00 459 84.4 29.98 0.00 71.2 83.1 12.2
UH Manoa Atmospheric Sciences 11/27/22 1345 82.5 57 65.8 1.7 SSE | 149 4.9 0.00 536 84.6 29.98 0.00 71.2 83.1 12.2
UH Manoa Atmospheric Sciences 11/27/22 1330 82.1 59 66.3 1.8 ESE | 112 6.5 0.00 611 84.4 29.98 0.00 71.2 83.1 12.2
UH Manoa Atmospheric Sciences 11/27/22 1315 81.1 59 65.6 3.2 E | 80 7.6 0.00 646 83.1 29.98 0.00 71.2 82.2 12.2
UH Manoa Atmospheric Sciences 11/27/22 1300 81.0 60 65.6 3.6 E | 80 9.0 0.00 729 83.0 29.99 0.00 71.2 82.2 12.2
UH Manoa Atmospheric Sciences 11/27/22 1245 80.7 61 66.2 3.6 ENE | 76 8.5 0.00 675 82.8 30.00 0.00 71.2 81.7 12.2
UH Manoa Atmospheric Sciences 11/27/22 1230 80.1 64 66.8 3.4 ESE | 102 8.6 0.00 650 81.6 30.01 0.00 71.2 81.7 12.2
UH Manoa Atmospheric Sciences 11/27/22 1215 80.8 62 66.4 2.6 ENE | 72 8.0 0.00 442 82.8 30.01 0.00 71.2 81.7 12.2
UH Manoa Atmospheric Sciences 11/27/22 1200 80.5 60 65.5 2.6 NE | 44 6.5 0.00 795 82.3 30.02 0.00 71.2 81.1 12.2
UH Manoa Atmospheric Sciences 11/27/22 1145 79.1 63 65.4 4.4 NNE | 30 9.2 0.00 543 79.1 30.02 0.00 71.2 80.7 12.2
UH Manoa Atmospheric Sciences 11/27/22 1130 79.0 64 65.7 6.4 NE | 35 12.2 0.00 572 79.0 30.03 0.00 71.2 80.7 12.2
UH Manoa Atmospheric Sciences 11/27/22 1115 79.8 64 66.3 4.2 NE | 34 11.2 0.00 773 80.4 30.03 0.00 71.2 80.7 11.2
UH Manoa Atmospheric Sciences 11/27/22 1100 79.4 63 66.0 3.4 NE | 45 7.0 0.00 694 79.5 30.03 0.00 71.2 80.0 11.1
UH Manoa Atmospheric Sciences 11/27/22 1045 78.3 65 65.7 3.7 NE | 44 9.6 0.00 347 78.3 30.04 0.00 71.2 79.4 11.1
UH Manoa Atmospheric Sciences 11/27/22 1030 78.5 65 66.0 3.6 ENE | 58 8.8 0.00 615 78.5 30.04 0.00 71.2 79.4 11.1
UH Manoa Atmospheric Sciences 11/27/22 1015 77.2 68 65.8 3.2 NE | 53 7.2 0.00 492 77.2 30.05 0.00 71.2 78.2 11.1
UH Manoa Atmospheric Sciences 11/27/22 1000 77.5 67 65.7 2.8 NE | 40 7.1 0.00 244 77.5 30.05 0.00 71.2 78.1 11.1
UH Manoa Atmospheric Sciences 11/27/22 0945 77.2 67 65.3 1.6 ENE | 62 5.2 0.00 420 77.2 30.05 0.00 71.2 77.8 11.1
UH Manoa Atmospheric Sciences 11/27/22 0930 77.2 67 65.3 0.7 ENE | 64 2.5 0.00 456 77.2 30.05 0.00 71.2 77.7 11.1
UH Manoa Atmospheric Sciences 11/27/22 0915 75.9 69 65.2 0.9 E | 83 3.0 0.00 384 75.9 30.05 0.00 71.2 76.4 11.1
UH Manoa Atmospheric Sciences 11/27/22 0900 75.2 74 66.2 0.4 E | 79 2.5 0.00 368 75.2 30.05 0.00 71.2 75.9 11.1
UH Manoa Atmospheric Sciences 11/27/22 0845 73.6 76 65.6 0.6 E | 97 2.7 0.00 300 73.6 30.05 0.00 71.2 74.5 11.1
UH Manoa Atmospheric Sciences 11/27/22 0830 72.8 76 64.8 0.4 NW | 317 1.7 0.00 116 72.8 30.05 0.00 71.2 73.1 11.1
UH Manoa Atmospheric Sciences 11/27/22 0815 72.4 76 64.4 0.4 NW | 321 1.9 0.00 137 72.4 30.05 0.00 71.2 73.0 11.1
UH Manoa Atmospheric Sciences 11/27/22 0800 72.0 76 64.2 0.1 ESE | 112 1.0 0.00 131 72.0 30.04 0.00 71.2 73.0 11.1
UH Manoa Atmospheric Sciences 11/27/22 0745 71.4 76 63.5 0.6 E | 88 1.7 0.00 62 71.4 30.04 0.00 71.2 73.0 11.1
UH Manoa Atmospheric Sciences 11/27/22 0730 71.4 76 63.5 1.4 ESE | 102 2.7 0.00 33 71.4 30.03 0.00 71.2 73.0 11.1
UH Manoa Atmospheric Sciences 11/27/22 0715 71.6 76 63.6 1.7 ESE | 113 4.8 0.00 18 71.6 30.03 0.00 71.2 73.0 11.1
UH Manoa Atmospheric Sciences 11/27/22 0700 71.5 76 63.4 1.5 SSE | 157 4.8 0.00 3 71.5 30.02 0.00 71.2 73.0 11.1
UH Manoa Atmospheric Sciences 11/27/22 0645 71.7 76 63.6 2.7 NE | 49 6.3 0.00 0 71.7 30.01 0.00 71.2 73.0 11.1
UH Manoa Atmospheric Sciences 11/27/22 0630 71.4 76 63.3 4.3 NE | 43 7.2 0.00 0 71.4 30.01 0.00 71.2 73.0 11.1
UH Manoa Atmospheric Sciences 11/27/22 0615 71.7 75 63.5 4.3 NE | 46 7.1 0.00 0 71.7 30.01 0.00 71.6 73.0 11.1
UH Manoa Atmospheric Sciences 11/27/22 0600 71.7 75 63.4 5.5 NE | 40 8.2 0.00 0 71.7 30.00 0.00 71.6 73.0 11.1
UH Manoa Atmospheric Sciences 11/27/22 0545 71.8 75 63.3 5.2 NE | 44 9.2 0.00 0 71.8 30.00 0.00 71.7 73.0 11.1
UH Manoa Atmospheric Sciences 11/27/22 0530 71.9 74 63.3 5.7 NE | 38 8.6 0.00 0 71.9 29.99 0.00 71.7 73.0 11.1
UH Manoa Atmospheric Sciences 11/27/22 0515 71.9 74 63.3 6.1 NE | 41 9.0 0.00 0 71.9 29.99 0.00 71.7 73.0 11.1
UH Manoa Atmospheric Sciences 11/27/22 0500 72.0 74 63.3 5.6 NE | 43 9.1 0.00 0 72.0 29.99 0.00 71.7 73.0 11.1
UH Manoa Atmospheric Sciences 11/27/22 0445 72.2 73 63.3 5.8 NE | 40 9.5 0.00 0 72.2 29.99 0.00 71.7 73.0 11.1
UH Manoa Atmospheric Sciences 11/27/22 0430 72.3 73 63.1 5.8 NE | 39 9.4 0.00 0 72.3 30.00 0.00 71.7 73.0 11.1
UH Manoa Atmospheric Sciences 11/27/22 0415 72.3 73 63.0 6.2 NE | 41 10.1 0.00 0 72.3 30.00 0.00 71.7 73.0 11.1
UH Manoa Atmospheric Sciences 11/27/22 0400 72.1 73 63.1 6.4 NE | 40 9.5 0.00 0 72.1 30.00 0.00 71.7 73.0 11.1
UH Manoa Atmospheric Sciences 11/27/22 0345 72.0 74 63.4 6.2 NE | 40 9.6 0.00 0 72.0 30.00 0.00 71.7 73.0 11.1
UH Manoa Atmospheric Sciences 11/27/22 0330 71.9 75 63.5 6.8 NE | 40 10.6 0.00 0 71.9 30.00 0.00 71.7 73.0 11.1
UH Manoa Atmospheric Sciences 11/27/22 0315 71.9 75 63.4 7.2 NE | 40 11.0 0.00 0 71.9 30.00 0.00 71.7 73.0 11.1
UH Manoa Atmospheric Sciences 11/27/22 0300 71.8 74 63.3 6.9 NE | 38 11.1 0.00 0 71.8 30.01 0.00 71.7 73.0 11.1
UH Manoa Atmospheric Sciences 11/27/22 0245 71.8 74 63.1 6.4 NE | 42 10.6 0.00 0 71.8 30.01 0.00 71.7 73.0 10.7
UH Manoa Atmospheric Sciences 11/27/22 0230 71.9 74 63.0 6.2 NE | 40 10.7 0.00 0 71.9 30.01 0.00 71.8 73.0 10.7
UH Manoa Atmospheric Sciences 11/27/22 0215 72.2 72 62.8 6.7 NE | 40 9.8 0.00 0 72.2 30.02 0.00 71.9 73.0 10.1
UH Manoa Atmospheric Sciences 11/27/22 0200 72.5 72 62.8 6.5 NE | 40 10.1 0.00 0 72.5 30.02 0.00 72.1 73.0 10.1
UH Manoa Atmospheric Sciences 11/27/22 0145 72.6 71 62.7 5.7 NE | 41 7.9 0.00 0 72.6 30.02 0.00 72.1 73.0 10.1
UH Manoa Atmospheric Sciences 11/27/22 0130 72.6 71 62.6 5.6 NE | 41 9.3 0.00 0 72.6 30.03 0.00 72.1 73.0 10.1
UH Manoa Atmospheric Sciences 11/27/22 0115 72.5 71 62.6 6.2 NE | 40 9.6 0.00 0 72.5 30.03 0.00 72.1 73.0 10.1
UH Manoa Atmospheric Sciences 11/27/22 0100 72.3 72 62.8 5.5 NE | 39 8.9 0.00 0 72.3 30.03 0.00 72.1 73.0 10.1
UH Manoa Atmospheric Sciences 11/27/22 0045 72.4 72 62.9 5.9 NE | 42 8.4 0.00 0 72.4 30.03 0.00 72.1 73.0 10.1
UH Manoa Atmospheric Sciences 11/27/22 0030 72.4 72 62.9 5.3 NE | 43 8.6 0.00 0 72.4 30.03 0.00 72.2 73.0 10.1
UH Manoa Atmospheric Sciences 11/27/22 0015 72.7 71 63.0 6.4 NE | 37 10.1 0.00 0 72.7 30.03 0.00 72.5 73.0 10.1
UH Manoa Atmospheric Sciences 11/27/22 0000 72.6 72 63.2 6.7 NE | 36 10.1 0.00 0 72.6 30.04 0.04 68.8 78.2 20.6
UH Manoa Atmospheric Sciences 11/26/22 2345 72.6 73 63.3 7.2 NE | 39 12.4 0.00 0 72.6 30.04 0.04 68.8 78.2 20.6
UH Manoa Atmospheric Sciences 11/26/22 2330 72.6 72 63.3 7.7 NE | 35 12.0 0.00 0 72.6 30.04 0.04 68.8 78.2 20.6
UH Manoa Atmospheric Sciences 11/26/22 2315 72.6 73 63.3 7.4 NE | 39 12.4 0.00 0 72.6 30.04 0.04 68.8 78.2 20.6
UH Manoa Atmospheric Sciences 11/26/22 2300 72.8 72 63.3 8.3 NE | 38 13.8 0.00 0 72.8 30.04 0.04 68.8 78.2 20.6
UH Manoa Atmospheric Sciences 11/26/22 2245 72.8 71 62.9 7.7 NE | 37 12.7 0.00 0 72.8 30.05 0.04 68.8 78.2 20.6
UH Manoa Atmospheric Sciences 11/26/22 2230 73.2 69 62.4 7.2 NE | 34 11.2 0.00 0 73.2 30.05 0.04 68.8 78.2 20.6
UH Manoa Atmospheric Sciences 11/26/22 2215 73.6 68 62.2 6.6 NE | 35 10.1 0.00 0 73.6 30.04 0.04 68.8 78.2 20.6
UH Manoa Atmospheric Sciences 11/26/22 2200 73.7 67 62.2 7.0 NE | 34 11.7 0.00 0 73.7 30.04 0.04 68.8 78.2 20.6
UH Manoa Atmospheric Sciences 11/26/22 2145 73.7 68 62.4 7.2 NNE | 33 12.7 0.00 0 73.7 30.04 0.04 68.8 78.2 20.6
UH Manoa Atmospheric Sciences 11/26/22 2130 73.5 68 62.4 7.3 NE | 38 12.0 0.00 0 73.5 30.04 0.04 68.8 78.2 20.6
UH Manoa Atmospheric Sciences 11/26/22 2115 73.4 69 62.4 7.4 NE | 36 11.3 0.00 0 73.4 30.04 0.04 68.8 78.2 20.6
UH Manoa Atmospheric Sciences 11/26/22 2100 73.3 69 62.5 7.0 NE | 37 11.8 0.00 0 73.3 30.04 0.04 68.8 78.2 20.6
UH Manoa Atmospheric Sciences 11/26/22 2045 73.4 69 62.6 7.3 NE | 36 11.8 0.00 0 73.4 30.03 0.04 68.8 78.2 20.6
UH Manoa Atmospheric Sciences 11/26/22 2030 73.3 69 62.6 8.7 NNE | 33 15.2 0.00 0 73.3 30.03 0.04 68.8 78.2 20.6
UH Manoa Atmospheric Sciences 11/26/22 2015 73.1 70 62.7 9.2 NE | 35 13.0 0.00 0 73.1 30.02 0.04 68.8 78.2 20.6
UH Manoa Atmospheric Sciences 11/26/22 2000 73.4 69 62.6 7.3 NE | 39 14.8 0.00 0 73.4 30.02 0.04 68.8 78.2 20.6
UH Manoa Atmospheric Sciences 11/26/22 1945 73.5 68 62.5 6.3 NE | 35 11.2 0.00 0 73.5 30.01 0.04 68.8 78.2 20.6
UH Manoa Atmospheric Sciences 11/26/22 1930 73.6 68 62.5 6.6 NE | 34 11.0 0.00 0 73.6 30.01 0.04 68.8 78.2 20.6
UH Manoa Atmospheric Sciences 11/26/22 1915 73.5 69 62.6 6.2 NE | 35 12.3 0.00 0 73.5 29.99 0.04 68.8 78.2 20.6
UH Manoa Atmospheric Sciences 11/26/22 1900 73.6 69 62.6 6.3 NE | 34 11.8 0.00 0 73.6 29.99 0.04 68.8 78.2 20.6
UH Manoa Atmospheric Sciences 11/26/22 1845 73.6 68 62.6 7.6 NE | 36 12.7 0.00 0 73.6 29.98 0.04 68.8 78.2 20.6
UH Manoa Atmospheric Sciences 11/26/22 1830 73.7 68 62.5 8.2 NE | 37 14.8 0.00 0 73.7 29.98 0.04 68.8 78.2 20.6
UH Manoa Atmospheric Sciences 11/26/22 1815 73.9 68 62.5 9.1 NE | 34 16.0 0.00 0 73.9 29.97 0.04 68.8 78.2 20.6
UH Manoa Atmospheric Sciences 11/26/22 1800 74.2 66 62.2 8.6 NE | 42 13.0 0.00 0 74.2 29.97 0.04 68.8 78.2 20.6
Max     82.5 76 68.2 9.2 - 16.0 0.00 795 84.6 30.05 0.04 72.5 83.1 20.6
Avg     75.1 69 64.3 4.8 - 9.0 0.00 163 75.4 30.01 - - - -
Min     71.4 57 62.2 0.1 - 1.0 0.00 0 71.4 29.97 0.00 68.8 73.0 10.1